Strona główna
METAR-TAF:

METAR-TAF

Lotnisko :

Port lotniczy Buochs

Buochs, Szwajcaria

Szerokość geograficzna: 46-58-28N, Długość geograficzna: 8-23-49E, wysokość: 449 m

Aktualna obserwacja pogody

Raport powstał 15 minut temu, godzina 03:50 UTC
Wiatr 2 kt od południowy zachód
Temperatura -2°C
Wilgotność 80%
Ciśnienie 1018 hPa
Widzialność 10 km lub więcej
Brak chmur poniżej 1500 m i brak chmur cumulonimbus

METAR: LSZC 110350Z AUTO 22002KT CAVOK M02/M05 Q1018

czas: 05:05 (04:05 UTC)

Prognoza

Raport powstał 13 godziny i 40 minut temu, godzina 14:25 UTC
Prognoza ważna od 10 godzina 15 UTC do 10 godzina 24 UTC
Wiatr 3 kt z kierunków zmiennych
Widzialność 10 km lub więcej
Brak chmur poniżej 1500 m i brak chmur cumulonimbus
Prawdopodobieństwo 40%
od 10 godzina 22 UTC do 10 godzina 23 UTC
Widzialność: 4000 m
Płytka mgła

TAF: LSZC 101425Z 1015/1024 VRB03KT CAVOK PROB40 1022/1023 4000 MIFG NSC

Obserwacja i prognoza pogody dla ponad 4000 lotnisk (raport METAR i TAF).

Dostępne stacje oznaczono żółtymi i czerwonymi punktami na mapie.

Najedź kursorem aby zobaczyć nazwę stacji.

Kliknij aby zobaczyć obserwacje i prognozy pogody.

Aby zmienić mapę: kliknij na zielony przycisk z czarnym krzyżykiem, aby powiększyć; na zielony przycisk z myślnikiem, aby pomniejszyć; na zielone strzałki, aby przejść do map sąsiednich.


METAR-TAF: